Renee' T. Whatley — WDD5243 — position and weather

sailwx.info

Track history (hours):
 
Tides and Currents Weather Stations Pressure Air Temp Water Temp Dewpoint Dewpoint Depression Visibility Wind Speed Wind Dir Waves Ship Positions

Renee' T. Whatley

Owner: Terral RiverService, Inc., Lake Providence, LA. More information available from US FCC via Universal Licensing System and Coast Guard Vessel Documentation Center.

Last reported at 2016-Jul-23 12:04 UTC. Time now 2016-Jul-25 14:05 UTC.
Position N 31°51' W 091°20'.

Length 11 m.

Type: Tug. MMSI: 367155550.

Date/timePositionNaut miles runAvg speedWind from/ knotsBaromVisibWave heightAir tempDewpointWater temp
2016-Jul-23 12:04N 31°51' W 091°20'4 7.4
2016-Jul-23 11:28N 31°52' W 091°15'8 7.8
2016-Jul-23 10:28N 31°59' W 091°10'7 7.2
2016-Jul-23 09:32N 32°02' W 091°04'5 4.7
2016-Jul-23 08:25N 32°08' W 091°03'6 6.8
2016-Jul-23 07:33N 32°12' W 090°59'8 7.9
2016-Jul-23 06:33N 32°19' W 090°54'13 6.7
2016-Jul-23 04:33N 32°28' W 091°06'8 7.5
2016-Jul-23 03:33N 32°35' W 091°08'  
2016-Jul-16 19:32N 32°38' W 091°09'1 0.9
2016-Jul-16 18:33N 32°37' W 091°09'2 2.2
2016-Jul-16 17:33N 32°35' W 091°08'2 2.1
2016-Jul-16 16:33N 32°33' W 091°06'4 2.2
2016-Jul-16 14:34N 32°29' W 091°07'3 2.6
2016-Jul-16 13:33N 32°27' W 091°05'3 2.7
2016-Jul-16 12:33N 32°26' W 091°02'2 2.4
2016-Jul-16 11:33N 32°24' W 090°60'1 1.5
2016-Jul-16 10:33N 32°23' W 090°60'1 0.7
2016-Jul-16 09:31N 32°22' W 091°00'2 1.7
2016-Jul-16 08:33N 32°21' W 090°59'2 2.4
2016-Jul-16 07:33N 32°21' W 090°56'2 2.2
2016-Jul-16 06:33N 32°19' W 090°54'3 1.7
2016-Jul-16 04:33N 32°17' W 090°57'2 2.1
2016-Jul-16 03:33N 32°15' W 090°58'3 2.6
2016-Jul-16 02:33N 32°13' W 090°59'2 0.7
2016-Jul-16 00:07N 32°11' W 090°60'0 0.0
2016-Jul-15 23:32N 32°11' W 090°60'0 0.0
2016-Jul-15 22:33N 32°11' W 090°60'0 0.0
2016-Jul-15 16:06N 32°11' W 090°60'1 1.1
2016-Jul-15 15:33N 32°11' W 090°60'2 2.2
2016-Jul-15 14:33N 32°08' W 091°00'2 1.8
2016-Jul-15 13:17N 32°07' W 091°03'2 1.0
2016-Jul-15 11:22N 32°08' W 091°05'2 2.0
2016-Jul-15 10:33N 32°07' W 091°06'4 1.4
2016-Jul-15 07:31N 32°03' W 091°04'8 2.4
2016-Jul-15 04:14N 31°58' W 091°11'  
Track history (hours):
 
Tides and Currents Weather Stations Pressure Air Temp Water Temp Dewpoint Dewpoint Depression Visibility Wind Speed Wind Dir Waves Ship Positions

Renee' T. Whatley

Owner: Terral RiverService, Inc., Lake Providence, LA. More information available from US FCC via Universal Licensing System and Coast Guard Vessel Documentation Center.

Last reported at 2016-Jul-23 12:04 UTC. Time now 2016-Jul-25 14:05 UTC.
Position N 31°51' W 091°20'.

Length 11 m.

Type: Tug. MMSI: 367155550.

Date/timePositionNaut miles runAvg speedWind from/ knotsBaromVisibWave heightAir tempDewpointWater temp
2016-Jul-23 12:04N 31°51' W 091°20'4 7.4
2016-Jul-23 11:28N 31°52' W 091°15'8 7.8
2016-Jul-23 10:28N 31°59' W 091°10'7 7.2
2016-Jul-23 09:32N 32°02' W 091°04'5 4.7
2016-Jul-23 08:25N 32°08' W 091°03'6 6.8
2016-Jul-23 07:33N 32°12' W 090°59'8 7.9
2016-Jul-23 06:33N 32°19' W 090°54'13 6.7
2016-Jul-23 04:33N 32°28' W 091°06'8 7.5
2016-Jul-23 03:33N 32°35' W 091°08'  
2016-Jul-16 19:32N 32°38' W 091°09'1 0.9
2016-Jul-16 18:33N 32°37' W 091°09'2 2.2
2016-Jul-16 17:33N 32°35' W 091°08'2 2.1
2016-Jul-16 16:33N 32°33' W 091°06'4 2.2
2016-Jul-16 14:34N 32°29' W 091°07'3 2.6
2016-Jul-16 13:33N 32°27' W 091°05'3 2.7
2016-Jul-16 12:33N 32°26' W 091°02'2 2.4
2016-Jul-16 11:33N 32°24' W 090°60'1 1.5
2016-Jul-16 10:33N 32°23' W 090°60'1 0.7
2016-Jul-16 09:31N 32°22' W 091°00'2 1.7
2016-Jul-16 08:33N 32°21' W 090°59'2 2.4
2016-Jul-16 07:33N 32°21' W 090°56'2 2.2
2016-Jul-16 06:33N 32°19' W 090°54'3 1.7
2016-Jul-16 04:33N 32°17' W 090°57'2 2.1
2016-Jul-16 03:33N 32°15' W 090°58'3 2.6
2016-Jul-16 02:33N 32°13' W 090°59'2 0.7
2016-Jul-16 00:07N 32°11' W 090°60'0 0.0
2016-Jul-15 23:32N 32°11' W 090°60'0 0.0
2016-Jul-15 22:33N 32°11' W 090°60'0 0.0
2016-Jul-15 16:06N 32°11' W 090°60'1 1.1
2016-Jul-15 15:33N 32°11' W 090°60'2 2.2
2016-Jul-15 14:33N 32°08' W 091°00'2 1.8
2016-Jul-15 13:17N 32°07' W 091°03'2 1.0
2016-Jul-15 11:22N 32°08' W 091°05'2 2.0
2016-Jul-15 10:33N 32°07' W 091°06'4 1.4
2016-Jul-15 07:31N 32°03' W 091°04'8 2.4
2016-Jul-15 04:14N 31°58' W 091°11'  

Dump ship's entire track history